Time;durP1;ratioP1;P1;durP2;ratioP2;P2;SDS_P1;SDS_P2;PMS_P1;PMS_P2;Temp;Humidity;BMP_temperature;BMP_pressure;BME280_temperature;BME280_humidity;BME280_pressure;Samples;Min_cycle;Max_cycle;Signal;HPM_P1;HPM_P2
2022/06/27 00:00:41;;;;;;;1.70;1.60;;;23.70;57.80;;;;;;5076782;27;20528;-47
2022/06/27 00:03:22;;;;;;;1.60;1.50;;;23.70;57.90;;;;;;5113617;27;20537;-50
2022/06/27 00:06:04;;;;;;;1.80;1.70;;;23.70;57.80;;;;;;5090219;27;20584;-48
2022/06/27 00:08:45;;;;;;;2.33;2.13;;;23.80;57.90;;;;;;5053310;28;20609;-50
2022/06/27 00:11:25;;;;;;;2.10;2.00;;;23.70;57.80;;;;;;5087710;28;20596;-49
2022/06/27 00:14:06;;;;;;;1.67;1.40;;;23.70;57.80;;;;;;5062191;27;20642;-51
2022/06/27 00:16:46;;;;;;;1.60;1.50;;;23.70;57.80;;;;;;5147684;27;20529;-48
2022/06/27 00:19:29;;;;;;;1.90;1.80;;;23.70;57.90;;;;;;5082896;27;20615;-49
2022/06/27 00:22:09;;;;;;;3.00;1.50;;;23.70;57.90;;;;;;5091078;27;20538;-50
2022/06/27 00:24:50;;;;;;;1.43;1.30;;;23.70;57.80;;;;;;5064594;27;20556;-50
2022/06/27 00:27:32;;;;;;;2.20;2.00;;;23.70;57.90;;;;;;5074999;28;20594;-47
2022/06/27 00:30:11;;;;;;;2.03;1.70;;;23.70;57.90;;;;;;5126127;27;1244396;-49
2022/06/27 00:32:54;;;;;;;1.53;1.43;;;23.70;57.90;;;;;;5078213;27;20537;-49
2022/06/27 00:35:34;;;;;;;1.70;1.60;;;23.70;57.90;;;;;;5112358;27;20772;-48
2022/06/27 00:38:16;;;;;;;1.70;1.60;;;23.70;57.90;;;;;;5053152;28;20962;-49
2022/06/27 00:40:56;;;;;;;1.50;1.40;;;23.70;57.90;;;;;;5106928;27;20580;-50
2022/06/27 00:43:37;;;;;;;1.97;1.87;;;23.70;57.90;;;;;;5064496;27;20684;-50
2022/06/27 00:46:18;;;;;;;2.00;1.80;;;23.70;57.90;;;;;;5083633;28;20550;-49
2022/06/27 00:49:00;;;;;;;2.60;1.97;;;23.60;57.90;;;;;;5061535;27;20585;-49
2022/06/27 00:51:41;;;;;;;2.27;1.97;;;23.70;58.10;;;;;;5085406;28;20586;-50
2022/06/27 00:54:23;;;;;;;2.30;1.90;;;23.60;58.00;;;;;;5068268;27;20549;-48
2022/06/27 00:57:07;;;;;;;2.03;1.40;;;23.60;58.10;;;;;;5127511;27;20517;-49
2022/06/27 00:59:47;;;;;;;1.87;1.77;;;23.60;58.10;;;;;;5048226;27;20549;-51
2022/06/27 01:02:28;;;;;;;1.70;1.60;;;23.60;58.10;;;;;;5065593;28;20583;-48
2022/06/27 01:05:12;;;;;;;1.53;1.43;;;23.60;58.00;;;;;;5080459;27;20541;-49
2022/06/27 01:07:53;;;;;;;1.73;1.47;;;23.60;58.10;;;;;;5087970;27;21291;-48
2022/06/27 01:10:33;;;;;;;3.23;1.90;;;23.60;58.00;;;;;;5087027;28;20536;-49
2022/06/27 01:13:14;;;;;;;4.77;2.30;;;23.60;58.00;;;;;;5080130;27;20533;-49
2022/06/27 01:15:55;;;;;;;3.03;2.10;;;23.60;58.10;;;;;;5077492;28;20609;-49
2022/06/27 01:18:37;;;;;;;2.00;1.80;;;23.60;58.10;;;;;;5057622;28;20598;-46
2022/06/27 01:21:22;;;;;;;1.70;1.60;;;23.60;58.10;;;;;;5139134;27;1205548;-48
2022/06/27 01:24:03;;;;;;;3.63;1.63;;;23.60;58.10;;;;;;5073181;28;20591;-49
2022/06/27 01:26:44;;;;;;;1.90;1.80;;;23.60;58.10;;;;;;5075540;28;20591;-49
2022/06/27 01:29:28;;;;;;;1.63;1.50;;;23.60;58.10;;;;;;5053776;27;20960;-50
2022/06/27 01:32:11;;;;;;;1.93;1.77;;;23.60;58.10;;;;;;5081997;28;20575;-48
2022/06/27 01:34:52;;;;;;;2.07;1.83;;;23.60;58.20;;;;;;5127361;27;20530;-52
2022/06/27 01:37:33;;;;;;;2.17;1.50;;;23.60;58.20;;;;;;5076467;27;20533;-47
2022/06/27 01:40:15;;;;;;;2.00;1.73;;;23.60;58.20;;;;;;5127259;27;20532;-49
2022/06/27 01:42:57;;;;;;;2.67;2.20;;;23.60;58.20;;;;;;5076968;27;20590;-49
2022/06/27 01:45:38;;;;;;;1.80;1.70;;;23.60;58.20;;;;;;5075923;27;20721;-48
2022/06/27 01:48:19;;;;;;;1.80;1.70;;;23.60;58.10;;;;;;5071971;27;20571;-48
2022/06/27 01:51:02;;;;;;;1.87;1.77;;;23.50;58.10;;;;;;5082477;27;20947;-48
2022/06/27 01:53:43;;;;;;;2.13;1.93;;;23.60;58.10;;;;;;5065667;28;21129;-47
2022/06/27 01:56:25;;;;;;;1.90;1.80;;;23.60;58.20;;;;;;5086331;28;20602;-47
2022/06/27 01:59:06;;;;;;;1.93;1.83;;;23.60;58.20;;;;;;5086207;27;20533;-52
2022/06/27 02:01:47;;;;;;;2.37;2.07;;;23.50;58.10;;;;;;5064874;27;20666;-49
2022/06/27 02:04:30;;;;;;;2.07;1.90;;;23.50;58.10;;;;;;5068316;27;20540;-51
2022/06/27 02:07:13;;;;;;;2.13;1.93;;;23.50;58.10;;;;;;5078797;27;21066;-49
2022/06/27 02:09:53;;;;;;;2.90;2.30;;;23.50;58.20;;;;;;5087256;27;20589;-50
2022/06/27 02:12:35;;;;;;;1.73;1.63;;;23.50;58.20;;;;;;5124716;27;20529;-49
2022/06/27 02:15:16;;;;;;;3.07;2.30;;;23.50;58.10;;;;;;5098269;27;20532;-52
2022/06/27 02:17:57;;;;;;;3.70;2.07;;;23.50;59.20;;;;;;5099449;27;20536;-49
2022/06/27 02:20:39;;;;;;;2.10;1.90;;;23.50;58.00;;;;;;5084667;28;20520;-49
2022/06/27 02:23:20;;;;;;;3.60;2.10;;;23.50;58.10;;;;;;5115412;27;21070;-51
2022/06/27 02:26:04;;;;;;;3.77;2.77;;;23.50;58.10;;;;;;5128449;27;20524;-49
2022/06/27 02:28:45;;;;;;;3.07;2.00;;;23.50;58.10;;;;;;5095085;27;20978;-49
2022/06/27 02:31:27;;;;;;;2.50;1.70;;;23.40;58.00;;;;;;5147026;27;21271;-49
2022/06/27 02:34:12;;;;;;;2.13;1.60;;;23.50;58.10;;;;;;5042017;28;20613;-49
2022/06/27 02:36:51;;;;;;;2.33;1.60;;;23.50;58.10;;;;;;5124023;27;1362263;-51
2022/06/27 02:39:34;;;;;;;4.43;2.47;;;23.50;58.10;;;;;;5074702;27;20611;-49
2022/06/27 02:42:20;;;;;;;3.40;1.90;;;23.40;57.90;;;;;;5087556;28;20519;-49
2022/06/27 02:45:01;;;;;;;2.40;2.10;;;23.50;58.00;;;;;;5078504;27;20602;-49
2022/06/27 02:47:44;;;;;;;4.07;1.97;;;23.50;58.10;;;;;;5100468;27;20525;-51
2022/06/27 02:50:27;;;;;;;2.67;1.73;;;23.50;58.10;;;;;;5086821;27;20585;-48
2022/06/27 02:53:12;;;;;;;1.73;1.63;;;23.50;58.10;;;;;;5075554;28;20592;-48
2022/06/27 02:56:04;;;;;;;1.77;1.67;;;23.40;58.10;;;;;;5085492;27;20582;-49
2022/06/27 02:58:55;;;;;;;3.27;1.77;;;23.50;58.10;;;;;;5089764;27;20537;-49
2022/06/27 03:01:38;;;;;;;1.90;1.70;;;23.40;58.00;;;;;;5087346;27;20577;-50
2022/06/27 03:04:21;;;;;;;1.53;1.43;;;23.40;58.00;;;;;;5062574;27;20608;-48
2022/06/27 03:07:03;;;;;;;2.47;1.70;;;23.40;58.10;;;;;;5118869;27;20540;-51
2022/06/27 03:09:46;;;;;;;2.70;1.90;;;23.40;58.20;;;;;;5068022;27;20587;-48
2022/06/27 03:12:27;;;;;;;2.50;2.07;;;23.40;58.10;;;;;;5086898;28;20578;-49
2022/06/27 03:15:10;;;;;;;1.90;1.70;;;23.40;58.00;;;;;;5078868;27;20605;-48
2022/06/27 03:17:52;;;;;;;1.80;1.70;;;23.40;58.00;;;;;;5097055;27;20883;-49
2022/06/27 03:20:41;;;;;;;1.83;1.73;;;23.40;58.00;;;;;;5126826;27;20509;-50
2022/06/27 03:23:46;;;;;;;1.60;1.50;;;23.40;58.10;;;;;;5061410;27;20555;-51
2022/06/27 03:26:26;;;;;;;1.70;1.40;;;23.40;58.20;;;;;;5100821;27;20568;-48
2022/06/27 03:29:06;;;;;;;1.70;1.53;;;23.40;58.20;;;;;;5054143;28;21150;-48
2022/06/27 03:31:49;;;;;;;2.67;1.50;;;23.40;58.10;;;;;;5087527;28;21056;-49
2022/06/27 03:34:31;;;;;;;2.07;1.80;;;23.40;58.10;;;;;;5069806;27;21055;-52
2022/06/27 03:37:21;;;;;;;2.17;1.53;;;23.40;58.20;;;;;;5086567;27;20967;-51
2022/06/27 03:40:01;;;;;;;2.20;2.00;;;23.40;58.10;;;;;;5128564;27;20526;-52
2022/06/27 03:42:46;;;;;;;2.07;1.97;;;23.40;58.10;;;;;;5082645;27;20508;-50
2022/06/27 03:45:28;;;;;;;1.57;1.30;;;23.40;58.10;;;;;;5115935;27;20667;-51
2022/06/27 03:49:59;;;;;;;1.80;1.70;;;23.40;58.10;;;;;;5121119;27;20658;-46
2022/06/27 03:51:37;;;;;;;1.70;1.60;;;23.40;58.10;;;;;;5105771;27;20588;-48
2022/06/27 03:54:18;;;;;;;2.13;1.83;;;23.40;58.20;;;;;;5071195;28;21146;-50
2022/06/27 03:56:59;;;;;;;1.80;1.70;;;23.40;58.20;;;;;;5088083;28;20568;-49
2022/06/27 03:59:41;;;;;;;3.13;2.00;;;23.30;58.10;;;;;;5064765;27;20608;-48
2022/06/27 04:02:24;;;;;;;2.60;1.70;;;23.40;58.20;;;;;;5092077;27;20574;-49
2022/06/27 04:05:28;;;;;;;1.97;1.87;;;23.40;58.10;;;;;;5073952;27;20595;-50
2022/06/27 04:08:09;;;;;;;2.03;1.60;;;23.30;58.10;;;;;;5082075;27;20596;-48
2022/06/27 04:10:52;;;;;;;3.40;2.20;;;23.30;58.20;;;;;;5108306;27;20589;-52
2022/06/27 04:13:38;;;;;;;1.93;1.60;;;23.30;58.10;;;;;;5058132;28;20548;-51
2022/06/27 04:16:37;;;;;;;2.87;1.80;;;23.30;58.00;;;;;;5103928;27;20561;-49
2022/06/27 04:19:36;;;;;;;2.10;1.57;;;23.30;58.10;;;;;;5070666;27;20599;-52
2022/06/27 04:22:26;;;;;;;1.90;1.80;;;23.30;58.00;;;;;;5085006;22;21401;-47
2022/06/27 04:25:09;;;;;;;2.70;1.70;;;23.30;58.10;;;;;;5087851;27;20581;-47
2022/06/27 04:27:59;;;;;;;1.57;1.47;;;23.30;58.10;;;;;;5079085;28;20546;-48
2022/06/27 04:30:41;;;;;;;2.83;2.00;;;23.30;58.10;;;;;;5089387;28;20562;-67
2022/06/27 04:33:22;;;;;;;1.63;1.53;;;23.30;58.10;;;;;;5110042;27;20532;-46
2022/06/27 04:36:05;;;;;;;3.17;2.00;;;23.30;58.30;;;;;;5139611;27;20565;-47
2022/06/27 04:38:47;;;;;;;2.10;1.90;;;23.30;58.20;;;;;;5066094;27;20564;-47
2022/06/27 04:41:47;;;;;;;1.77;1.67;;;23.30;58.10;;;;;;5108919;27;20523;-47
2022/06/27 04:44:29;;;;;;;2.13;1.80;;;23.30;58.20;;;;;;5050775;28;21098;-48
2022/06/27 04:47:12;;;;;;;1.93;1.70;;;23.30;58.20;;;;;;5087839;27;20508;-65
2022/06/27 04:50:05;;;;;;;2.30;2.10;;;23.30;58.20;;;;;;5088697;27;20692;-46
2022/06/27 04:52:47;;;;;;;2.70;2.50;;;23.30;58.20;;;;;;5105448;27;20624;-49
2022/06/27 04:55:30;;;;;;;2.20;2.00;;;23.30;58.30;;;;;;5095816;27;20637;-47
2022/06/27 04:58:10;;;;;;;1.63;1.53;;;23.30;58.30;;;;;;5117643;27;20589;-47
2022/06/27 05:00:52;;;;;;;2.23;2.03;;;23.30;58.30;;;;;;5125854;27;20574;-47
2022/06/27 05:03:51;;;;;;;1.83;1.70;;;23.30;58.30;;;;;;5096716;27;20543;-48
2022/06/27 05:06:37;;;;;;;2.40;1.97;;;23.20;58.30;;;;;;5102564;27;21119;-48
2022/06/27 05:09:20;;;;;;;2.40;2.10;;;23.30;58.30;;;;;;5072259;27;20586;-47
2022/06/27 05:12:01;;;;;;;1.93;1.67;;;23.20;58.20;;;;;;5088049;28;21108;-47
2022/06/27 05:14:43;;;;;;;2.20;1.83;;;23.20;58.10;;;;;;5081496;27;20564;-46
2022/06/27 05:17:24;;;;;;;2.60;1.90;;;23.20;58.30;;;;;;5139746;27;1254921;-47
2022/06/27 05:20:07;;;;;;;3.00;2.03;;;23.20;58.20;;;;;;5074670;28;20536;-48
2022/06/27 05:22:47;;;;;;;2.90;2.20;;;23.20;58.30;;;;;;5102796;27;20535;-48
2022/06/27 05:25:28;;;;;;;1.57;1.40;;;23.20;58.40;;;;;;5079271;28;20537;-48
2022/06/27 05:28:10;;;;;;;1.70;1.60;;;23.20;58.30;;;;;;5075774;28;20538;-46
2022/06/27 05:30:51;;;;;;;2.17;1.70;;;23.20;58.30;;;;;;5100428;27;20596;-48
2022/06/27 05:33:31;;;;;;;2.30;2.10;;;23.20;58.30;;;;;;5101653;27;20532;-47
2022/06/27 05:36:11;;;;;;;2.10;1.90;;;23.20;58.30;;;;;;5142147;27;1210933;-48
2022/06/27 05:38:52;;;;;;;2.57;2.37;;;23.20;58.30;;;;;;5063894;27;20546;-47
2022/06/27 05:41:34;;;;;;;2.20;2.00;;;23.20;58.20;;;;;;5087619;27;21092;-47
2022/06/27 05:44:18;;;;;;;1.90;1.80;;;23.20;58.30;;;;;;5078233;27;20637;-47
2022/06/27 05:47:00;;;;;;;2.13;1.93;;;23.20;58.40;;;;;;5087182;27;20578;-47
2022/06/27 05:50:00;;;;;;;2.33;2.13;;;23.20;58.30;;;;;;5085021;28;20585;-47
2022/06/27 05:52:42;;;;;;;1.80;1.70;;;23.20;58.40;;;;;;5075501;28;20550;-47
2022/06/27 05:55:23;;;;;;;2.07;1.90;;;23.20;58.40;;;;;;5071295;28;20588;-47
2022/06/27 05:58:07;;;;;;;2.47;1.70;;;23.20;58.50;;;;;;5077294;27;20960;-47
2022/06/27 06:00:47;;;;;;;1.90;1.80;;;23.20;61.80;;;;;;5119914;27;20831;-47
2022/06/27 06:03:29;;;;;;;1.70;1.60;;;23.20;58.30;;;;;;5082088;27;20667;-48
2022/06/27 06:06:10;;;;;;;1.70;1.60;;;23.20;58.40;;;;;;5077803;27;21147;-46
2022/06/27 06:08:52;;;;;;;1.80;1.70;;;23.20;58.40;;;;;;5135376;27;20663;-48
2022/06/27 06:11:33;;;;;;;1.93;1.73;;;23.20;58.50;;;;;;5107963;27;20572;-46
2022/06/27 06:14:16;;;;;;;2.00;1.80;;;23.10;58.30;;;;;;5118514;27;20535;-47
2022/06/27 06:16:58;;;;;;;2.63;2.37;;;23.10;58.30;;;;;;5080219;28;20542;-47
2022/06/27 06:19:39;;;;;;;2.57;2.37;;;23.10;58.30;;;;;;5069236;27;20935;-45
2022/06/27 06:22:20;;;;;;;2.83;2.60;;;23.10;58.30;;;;;;5084271;27;20544;-48
2022/06/27 06:25:02;;;;;;;3.47;3.17;;;23.10;58.30;;;;;;5079719;27;20598;-47
2022/06/27 06:27:44;;;;;;;2.83;2.40;;;23.10;60.30;;;;;;5081431;27;20937;-48
2022/06/27 06:30:30;;;;;;;3.33;2.60;;;23.10;58.40;;;;;;5080625;28;20582;-48
2022/06/27 06:33:15;;;;;;;2.43;2.23;;;23.10;58.50;;;;;;5080649;27;20541;-46
2022/06/27 06:35:57;;;;;;;3.17;2.70;;;23.10;58.60;;;;;;5076142;28;21153;-47
2022/06/27 06:38:39;;;;;;;3.43;2.70;;;23.10;58.50;;;;;;5133513;27;20530;-47
2022/06/27 06:41:20;;;;;;;2.20;2.00;;;23.10;58.50;;;;;;5075689;28;20516;-47
2022/06/27 06:44:02;;;;;;;3.30;3.00;;;23.00;58.40;;;;;;5049983;28;21080;-65
2022/06/27 06:47:10;;;;;;;2.40;2.20;;;23.00;58.30;;;;;;5093705;27;20528;-47
2022/06/27 06:49:55;;;;;;;3.93;2.13;;;23.10;58.40;;;;;;5068945;27;1327604;-48
2022/06/27 06:52:38;;;;;;;3.27;2.83;;;23.00;58.30;;;;;;5082312;28;20953;-47
2022/06/27 06:55:21;;;;;;;2.57;2.37;;;23.00;58.30;;;;;;5084265;27;20556;-47
2022/06/27 06:58:02;;;;;;;2.33;2.13;;;23.00;58.30;;;;;;5072981;28;20549;-47
2022/06/27 07:00:44;;;;;;;3.13;2.60;;;23.10;58.40;;;;;;5104979;27;20647;-46
2022/06/27 07:03:25;;;;;;;2.90;2.60;;;23.10;58.40;;;;;;5099736;27;20938;-47
2022/06/27 07:06:06;;;;;;;2.97;2.47;;;23.00;58.30;;;;;;5071518;27;20547;-47
2022/06/27 07:08:48;;;;;;;2.63;2.43;;;23.00;58.30;;;;;;5116790;27;20592;-47
2022/06/27 07:11:31;;;;;;;2.73;2.10;;;23.00;58.30;;;;;;5108369;27;20507;-48
2022/06/27 07:14:13;;;;;;;2.43;2.23;;;23.00;58.20;;;;;;5041512;27;20615;-47
2022/06/27 07:16:54;;;;;;;2.43;2.23;;;23.00;58.30;;;;;;5107873;27;20510;-47
2022/06/27 07:19:35;;;;;;;2.30;2.07;;;23.10;58.40;;;;;;5036193;28;21141;-46
2022/06/27 07:22:18;;;;;;;3.07;1.87;;;23.00;58.30;;;;;;5078384;27;20544;-45
2022/06/27 07:24:59;;;;;;;3.13;2.20;;;23.00;58.30;;;;;;5083244;28;20540;-46
2022/06/27 07:27:42;;;;;;;3.50;2.70;;;23.00;58.30;;;;;;5082436;28;20523;-47
2022/06/27 07:30:24;;;;;;;3.70;2.77;;;23.00;58.20;;;;;;5082487;28;21063;-47
2022/06/27 07:33:05;;;;;;;6.67;2.73;;;23.00;58.30;;;;;;5072897;28;20538;-47
2022/06/27 07:35:46;;;;;;;2.97;2.53;;;23.00;59.50;;;;;;5064112;28;21156;-47
2022/06/27 07:38:25;;;;;;;4.78;2.65;;;23.00;58.30;;;;;;5121583;27;1219484;-48
2022/06/27 07:41:06;;;;;;;3.50;2.80;;;23.00;58.30;;;;;;5086492;28;20577;-47
2022/06/27 07:43:48;;;;;;;4.40;2.63;;;23.00;58.30;;;;;;5114220;27;20631;-47
2022/06/27 07:46:31;;;;;;;2.60;2.40;;;23.00;58.30;;;;;;5093057;27;20937;-48
2022/06/27 07:49:11;;;;;;;2.60;2.30;;;23.00;58.50;;;;;;5076395;27;20543;-47
2022/06/27 07:51:51;;;;;;;4.17;3.17;;;23.00;58.30;;;;;;5120057;27;20579;-47
2022/06/27 07:54:31;;;;;;;3.70;2.70;;;23.00;58.50;;;;;;5039629;28;20555;-47
2022/06/27 07:57:13;;;;;;;3.17;2.50;;;22.90;58.40;;;;;;5087384;28;20586;-48
2022/06/27 07:59:54;;;;;;;3.13;2.83;;;23.00;58.50;;;;;;5024837;27;21113;-47
2022/06/27 08:02:35;;;;;;;2.87;2.63;;;22.90;58.30;;;;;;5069417;27;21070;-48
2022/06/27 08:05:17;;;;;;;2.70;2.50;;;22.90;58.40;;;;;;5096893;27;20594;-48
2022/06/27 08:07:57;;;;;;;2.87;2.67;;;22.90;58.50;;;;;;5111534;27;20579;-47
2022/06/27 08:10:38;;;;;;;3.27;3.00;;;22.90;58.50;;;;;;5117281;27;20570;-48
2022/06/27 08:13:18;;;;;;;2.90;2.60;;;22.90;58.60;;;;;;5119713;27;20583;-45
2022/06/27 08:15:58;;;;;;;3.53;3.03;;;22.90;58.50;;;;;;5093417;27;20603;-47
2022/06/27 08:18:39;;;;;;;4.80;4.07;;;22.90;58.60;;;;;;5058156;27;20950;-48
2022/06/27 08:21:24;;;;;;;3.20;2.97;;;22.90;59.70;;;;;;5125619;27;20593;-48
2022/06/27 08:24:09;;;;;;;4.33;2.60;;;22.90;58.60;;;;;;5036319;27;20609;-44
2022/06/27 08:26:50;;;;;;;4.30;3.90;;;22.90;58.70;;;;;;5133449;27;20926;-46
2022/06/27 08:29:32;;;;;;;2.93;2.73;;;22.90;58.60;;;;;;5032157;28;20560;-48
2022/06/27 08:32:12;;;;;;;2.90;2.70;;;22.80;58.50;;;;;;5087490;28;20578;-44
2022/06/27 08:34:54;;;;;;;2.20;2.00;;;22.90;58.60;;;;;;5038435;27;20640;-45
2022/06/27 08:37:36;;;;;;;2.87;2.60;;;22.90;59.80;;;;;;5081459;27;21016;-47
2022/06/27 08:40:17;;;;;;;2.97;2.67;;;22.90;58.70;;;;;;5087628;28;20600;-48
2022/06/27 08:42:59;;;;;;;3.63;3.33;;;22.90;58.60;;;;;;5074894;28;21077;-47
2022/06/27 08:45:40;;;;;;;5.00;2.87;;;22.90;58.80;;;;;;5111874;27;20549;-47
2022/06/27 08:48:21;;;;;;;4.93;2.60;;;22.90;58.60;;;;;;5114258;27;20591;-48
2022/06/27 08:51:06;;;;;;;3.10;2.80;;;22.90;58.60;;;;;;5127407;27;20540;-48
2022/06/27 08:53:50;;;;;;;2.53;2.30;;;22.90;58.70;;;;;;5055216;27;20601;-47
2022/06/27 08:56:32;;;;;;;3.50;2.80;;;22.80;58.60;;;;;;5122176;27;20523;-48
2022/06/27 08:59:13;;;;;;;3.30;3.00;;;22.90;58.70;;;;;;5064804;27;20589;-48
2022/06/27 09:01:59;;;;;;;3.00;2.67;;;22.80;58.70;;;;;;5086464;28;20582;-48
2022/06/27 09:04:57;;;;;;;2.90;2.30;;;22.80;58.80;;;;;;5094886;27;20608;-48
2022/06/27 09:07:51;;;;;;;3.93;3.30;;;22.80;58.90;;;;;;5084467;28;20602;-47
2022/06/27 09:10:34;;;;;;;3.50;2.67;;;22.80;58.80;;;;;;5087625;27;20526;-47
2022/06/27 09:13:19;;;;;;;2.77;2.53;;;22.80;58.80;;;;;;5121199;27;20586;-47
2022/06/27 09:16:01;;;;;;;2.53;2.33;;;22.80;58.80;;;;;;5066572;28;20625;-47
2022/06/27 09:18:43;;;;;;;3.87;3.20;;;22.80;58.80;;;;;;5108094;27;20529;-47
2022/06/27 09:21:25;;;;;;;2.90;2.70;;;22.80;58.90;;;;;;5079959;28;20540;-47
2022/06/27 09:24:06;;;;;;;2.47;2.27;;;22.80;58.90;;;;;;5048183;28;20604;-47
2022/06/27 09:26:47;;;;;;;3.27;2.97;;;22.80;58.90;;;;;;5087321;28;20581;-46
2022/06/27 09:29:28;;;;;;;2.53;2.33;;;22.80;58.90;;;;;;5077086;27;20591;-47
2022/06/27 09:32:11;;;;;;;3.23;2.93;;;22.80;58.90;;;;;;5066966;28;20583;-48
2022/06/27 09:34:54;;;;;;;3.03;2.70;;;22.80;58.90;;;;;;5028184;27;20548;-47
2022/06/27 09:37:51;;;;;;;2.97;2.77;;;22.80;58.80;;;;;;5079295;27;20535;-47
2022/06/27 09:40:33;;;;;;;6.80;3.20;;;22.80;58.90;;;;;;5127478;27;20940;-48
2022/06/27 09:43:22;;;;;;;3.50;2.53;;;22.80;58.90;;;;;;5067521;28;20601;-47
2022/06/27 09:46:04;;;;;;;3.07;2.87;;;22.80;59.00;;;;;;5102547;27;20594;-47
2022/06/27 09:48:47;;;;;;;3.00;2.80;;;22.80;59.10;;;;;;5107081;27;20534;-48
2022/06/27 09:51:28;;;;;;;4.40;3.70;;;22.80;59.10;;;;;;5099349;27;20599;-46
2022/06/27 09:54:11;;;;;;;3.27;3.00;;;22.80;59.20;;;;;;5073571;27;20538;-46
2022/06/27 09:56:52;;;;;;;3.30;3.10;;;22.80;59.40;;;;;;5146533;27;20516;-47
2022/06/27 09:59:33;;;;;;;3.13;2.80;;;22.80;59.30;;;;;;5069925;27;20597;-47
2022/06/27 10:02:17;;;;;;;3.43;3.13;;;22.80;59.50;;;;;;5085975;27;20596;-46
2022/06/27 10:05:00;;;;;;;2.80;2.60;;;22.80;59.50;;;;;;5067208;28;21191;-47
2022/06/27 10:07:43;;;;;;;4.50;2.87;;;22.80;59.40;;;;;;5117733;27;20546;-48
2022/06/27 10:10:30;;;;;;;4.70;2.93;;;22.80;59.50;;;;;;5088049;27;20565;-47
2022/06/27 10:13:12;;;;;;;3.13;2.83;;;22.80;59.40;;;;;;5092253;27;20968;-47
2022/06/27 10:15:54;;;;;;;2.70;2.50;;;22.80;59.50;;;;;;5105145;27;20668;-47
2022/06/27 10:19:03;;;;;;;2.90;2.70;;;22.80;59.40;;;;;;5102611;27;20599;-48
2022/06/27 10:21:47;;;;;;;2.50;2.30;;;22.70;59.30;;;;;;5119005;27;20590;-47
2022/06/27 10:24:34;;;;;;;3.27;2.97;;;22.80;59.30;;;;;;5041335;27;20972;-47
2022/06/27 10:27:30;;;;;;;2.50;2.30;;;22.70;59.10;;;;;;5088070;28;20512;-46
2022/06/27 10:30:37;;;;;;;3.10;2.90;;;22.80;59.10;;;;;;5085413;27;20531;-46
2022/06/27 10:33:37;;;;;;;2.80;2.60;;;22.80;59.10;;;;;;5122224;27;20909;-67
2022/06/27 10:36:18;;;;;;;3.57;2.80;;;22.80;59.20;;;;;;5079880;28;20565;-46
2022/06/27 10:39:01;;;;;;;2.97;2.77;;;22.70;59.00;;;;;;5077718;22;20576;-48
2022/06/27 10:41:42;;;;;;;4.13;2.70;;;22.70;58.90;;;;;;5075421;28;20535;-48
2022/06/27 10:44:33;;;;;;;2.97;2.70;;;22.70;58.90;;;;;;5041883;27;20665;-49
2022/06/27 10:47:34;;;;;;;2.87;2.67;;;22.70;59.00;;;;;;5086853;27;20992;-48
2022/06/27 10:50:18;;;;;;;3.17;2.80;;;22.70;58.70;;;;;;5104571;27;20530;-48
2022/06/27 10:53:23;;;;;;;2.93;2.67;;;22.80;58.80;;;;;;5124876;27;20939;-47
2022/06/27 10:58:56;;;;;;;3.70;3.10;;;22.70;58.60;;;;;;5059061;28;20600;-47
2022/06/27 11:01:37;;;;;;;3.50;3.20;;;22.70;58.50;;;;;;5086910;28;21061;-48
2022/06/27 11:04:26;;;;;;;3.43;2.70;;;22.70;58.10;;;;;;5058973;27;20575;-48
2022/06/27 11:07:08;;;;;;;2.20;2.00;;;22.70;58.30;;;;;;5101601;27;21065;-49
2022/06/27 11:09:49;;;;;;;2.40;2.30;;;22.70;58.20;;;;;;5032517;27;20931;-49
2022/06/27 11:12:33;;;;;;;2.67;2.47;;;22.70;58.30;;;;;;5090072;27;20548;-48
2022/06/27 11:15:14;;;;;;;3.37;2.80;;;22.80;58.40;;;;;;5080789;27;20622;-48
2022/06/27 11:17:55;;;;;;;3.30;3.10;;;22.70;58.50;;;;;;5086906;27;21030;-49
2022/06/27 11:20:35;;;;;;;2.70;2.50;;;22.70;58.40;;;;;;5085364;27;20516;-47
2022/06/27 11:23:18;;;;;;;2.73;2.50;;;22.80;58.60;;;;;;5059284;27;21162;-48
2022/06/27 11:25:59;;;;;;;2.63;2.30;;;22.70;58.40;;;;;;5107770;27;21114;-48
2022/06/27 11:31:58;;;;;;;2.27;1.90;;;22.80;58.50;;;;;;5080137;28;20536;-47
2022/06/27 11:34:43;;;;;;;2.47;2.27;;;22.80;58.40;;;;;;5073227;27;21150;-48
2022/06/27 11:37:24;;;;;;;2.97;2.77;;;22.80;58.50;;;;;;5078700;28;20586;-47
2022/06/27 11:40:08;;;;;;;3.40;3.10;;;22.80;58.40;;;;;;5128032;27;20919;-47
2022/06/27 11:42:53;;;;;;;3.53;3.17;;;22.80;58.30;;;;;;5081190;27;20512;-49
2022/06/27 11:45:41;;;;;;;4.00;3.60;;;22.80;58.30;;;;;;5081052;28;20572;-48
2022/06/27 11:48:22;;;;;;;3.50;3.20;;;22.80;58.10;;;;;;5067765;27;20601;-50
2022/06/27 11:51:02;;;;;;;4.10;3.77;;;22.80;58.10;;;;;;5084177;27;20537;-48
2022/06/27 11:53:54;;;;;;;5.20;4.70;;;22.80;58.40;;;;;;5096643;27;20593;-48
2022/06/27 11:56:39;;;;;;;3.30;3.00;;;22.80;58.30;;;;;;5128230;27;20952;-49
2022/06/27 11:59:21;;;;;;;4.10;3.53;;;22.80;58.50;;;;;;5071337;27;20673;-48
2022/06/27 12:02:04;;;;;;;5.70;5.20;;;22.80;58.50;;;;;;5087066;28;20587;-49
2022/06/27 12:04:45;;;;;;;5.37;4.97;;;22.70;58.30;;;;;;5032578;27;20554;-49
2022/06/27 12:07:24;;;;;;;5.00;4.60;;;22.70;58.40;;;;;;5098742;27;20589;-48
2022/06/27 12:10:03;;;;;;;3.90;3.60;;;22.80;58.60;;;;;;5060080;27;1327981;-49
2022/06/27 12:12:46;;;;;;;8.40;4.30;;;22.70;59.70;;;;;;5126273;27;20516;-47
2022/06/27 12:15:28;;;;;;;4.47;3.80;;;22.80;58.70;;;;;;5114311;27;20689;-48
2022/06/27 12:18:12;;;;;;;5.27;4.67;;;22.80;58.90;;;;;;5073474;28;20958;-49
2022/06/27 12:20:53;;;;;;;4.13;3.83;;;22.80;58.80;;;;;;5113154;27;20613;-49
2022/06/27 12:23:35;;;;;;;4.07;3.70;;;22.80;58.90;;;;;;5075680;27;20575;-48
2022/06/27 12:26:16;;;;;;;5.10;4.70;;;22.80;58.80;;;;;;5116226;27;20533;-48
2022/06/27 12:28:57;;;;;;;4.27;3.97;;;22.80;58.60;;;;;;5053194;27;20611;-46
2022/06/27 12:31:37;;;;;;;4.77;3.43;;;22.80;58.50;;;;;;5126269;27;20586;-48
2022/06/27 12:34:18;;;;;;;4.43;4.07;;;22.80;59.90;;;;;;5044028;27;20598;-48
2022/06/27 12:36:58;;;;;;;4.83;4.43;;;22.80;58.60;;;;;;5097652;27;20600;-48
2022/06/27 12:39:41;;;;;;;3.40;3.20;;;22.80;58.40;;;;;;5094271;27;20581;-48
2022/06/27 12:42:21;;;;;;;3.10;2.80;;;22.80;58.60;;;;;;5113101;27;20530;-48
2022/06/27 12:45:03;;;;;;;5.90;4.50;;;22.80;58.40;;;;;;5080516;28;20535;-48
2022/06/27 12:47:44;;;;;;;3.80;3.50;;;22.80;58.10;;;;;;5125577;27;20524;-49
2022/06/27 12:50:24;;;;;;;3.67;3.37;;;22.80;58.60;;;;;;5128377;27;20574;-48
2022/06/27 12:53:05;;;;;;;3.53;3.30;;;22.80;58.30;;;;;;5082688;27;20578;-48
2022/06/27 12:55:47;;;;;;;3.60;3.30;;;22.80;58.40;;;;;;5127278;27;20533;-49
2022/06/27 12:58:31;;;;;;;3.70;3.40;;;22.80;58.60;;;;;;5050435;27;20543;-48
2022/06/27 13:01:11;;;;;;;3.40;3.10;;;22.80;58.50;;;;;;5108858;27;20534;-48
2022/06/27 13:03:52;;;;;;;3.80;3.03;;;22.80;58.50;;;;;;5055218;28;20591;-49
2022/06/27 13:06:34;;;;;;;2.40;2.30;;;22.80;58.50;;;;;;5077614;28;21217;-49
2022/06/27 13:09:16;;;;;;;3.70;3.00;;;22.80;58.60;;;;;;5073856;27;21032;-48
2022/06/27 13:11:57;;;;;;;3.10;2.80;;;22.80;58.40;;;;;;5128855;27;20513;-48
2022/06/27 13:14:38;;;;;;;3.10;2.90;;;22.80;59.70;;;;;;5092217;27;20609;-48
2022/06/27 13:17:20;;;;;;;3.37;3.17;;;22.80;58.60;;;;;;5066644;27;20533;-48
2022/06/27 13:20:01;;;;;;;2.70;2.50;;;22.80;58.60;;;;;;5027560;28;20536;-48
2022/06/27 13:22:42;;;;;;;3.10;2.83;;;22.80;58.60;;;;;;5118182;27;20524;-48
2022/06/27 13:25:23;;;;;;;2.83;2.63;;;22.80;58.50;;;;;;5087519;28;20585;-48
2022/06/27 13:28:04;;;;;;;2.33;2.13;;;22.80;58.60;;;;;;5096466;27;20564;-49
2022/06/27 13:30:45;;;;;;;3.10;2.90;;;22.80;58.40;;;;;;5062148;27;20581;-48
2022/06/27 13:33:26;;;;;;;2.93;2.63;;;22.80;58.30;;;;;;5113431;27;21181;-48
2022/06/27 13:36:08;;;;;;;3.07;2.43;;;22.80;58.40;;;;;;5067407;28;20546;-48
2022/06/27 13:38:49;;;;;;;2.67;2.50;;;22.80;58.10;;;;;;5074523;27;20578;-47
2022/06/27 13:41:31;;;;;;;3.17;2.90;;;22.80;58.30;;;;;;5124311;27;20547;-48
2022/06/27 13:44:12;;;;;;;2.53;2.33;;;22.80;58.10;;;;;;5053323;27;20535;-48
2022/06/27 13:46:52;;;;;;;3.70;3.40;;;22.80;58.10;;;;;;5075898;28;20543;-47
2022/06/27 13:49:32;;;;;;;4.00;2.67;;;22.80;58.40;;;;;;5116168;27;20541;-49
2022/06/27 13:52:14;;;;;;;2.67;2.47;;;22.80;58.40;;;;;;5126051;27;20541;-48
2022/06/27 13:54:54;;;;;;;3.83;3.43;;;22.80;58.50;;;;;;5056547;27;20610;-48
2022/06/27 13:57:36;;;;;;;2.90;2.70;;;22.80;58.50;;;;;;5127945;27;20505;-48
2022/06/27 14:00:37;;;;;;;2.60;2.40;;;22.80;58.50;;;;;;5083372;27;21053;-48
2022/06/27 14:03:18;;;;;;;3.23;2.20;;;22.80;58.30;;;;;;5073157;27;21089;-49
2022/06/27 14:07:36;;;;;;;2.30;2.00;;;22.80;58.60;;;;;;5120804;27;20539;-49
2022/06/27 14:09:00;;;;;;;2.53;1.73;;;22.80;59.20;;;;;;5052547;28;20540;-49
2022/06/27 14:11:42;;;;;;;4.13;1.97;;;22.70;59.70;;;;;;5107741;27;20590;-48
2022/06/27 14:14:23;;;;;;;1.80;1.70;;;22.70;60.10;;;;;;5099985;27;20621;-48